Chaves, Brazil
Current Conditions -  °F | °C
As of 9:00 PM on Wednesday 26 Nov 2014 (Local Time) from SBMQ Reporting Station
Broken Clouds Broken Clouds  
Wind Chill: 82°   Ceiling: 8000
Heat Index: 88°   Visibility: 6mi
Dew Point: 73°   Wind: 9mph
Humidity: 74%   Direction: 50°NE
Pressure: 29.8"   Gusts: NA
Location:  0.2°S, 49.92°W
Report Text: SBMQ 270000Z 05008KT 9999 SCT013 BKN080 28/23 Q1009
Loading
Personal Weather Stations






























Interactive Weather Map New forecast layout! Learn more

10-Day Weather Forecast

Advertisements
Track Severe Weather on mobile